createdAt,value
2023-02-04T00:01:57.567Z,1.67
2023-02-04T00:04:25.559Z,1.70
2023-02-04T00:06:58.035Z,2.00
2023-02-04T00:09:28.021Z,2.17
2023-02-04T00:11:58.069Z,2.00
2023-02-04T00:14:27.016Z,1.93
2023-02-04T00:16:56.933Z,2.00
2023-02-04T00:19:25.870Z,1.90
2023-02-04T00:21:52.818Z,2.20
2023-02-04T00:24:20.748Z,1.73
2023-02-04T00:26:50.708Z,2.17
2023-02-04T00:29:17.600Z,2.40
2023-02-04T00:31:45.848Z,2.30
2023-02-04T00:34:14.045Z,1.83
2023-02-04T00:36:41.006Z,2.10
2023-02-04T00:39:11.046Z,1.80
2023-02-04T00:41:40.454Z,2.50
2023-02-04T00:44:07.398Z,2.70
2023-02-04T00:46:34.336Z,2.13
2023-02-04T00:49:09.035Z,2.83
2023-02-04T00:51:39.717Z,2.50
2023-02-04T00:54:09.818Z,2.50
2023-02-04T00:56:37.064Z,2.50
2023-02-04T00:59:06.231Z,3.27
2023-02-04T01:01:36.379Z,2.37
2023-02-04T01:04:08.914Z,2.37
2023-02-04T01:06:35.960Z,2.77
2023-02-04T01:09:03.908Z,2.50
2023-02-04T01:11:31.542Z,2.60
2023-02-04T01:13:58.846Z,2.67
2023-02-04T01:16:26.053Z,3.37
2023-02-04T01:18:55.873Z,2.90
2023-02-04T01:21:25.426Z,2.60
2023-02-04T01:23:55.837Z,3.10
2023-02-04T01:26:24.826Z,3.00
2023-02-04T01:28:51.871Z,3.07
2023-02-04T01:31:23.791Z,2.80
2023-02-04T01:34:00.207Z,2.87
2023-02-04T01:36:30.677Z,2.33
2023-02-04T01:39:01.127Z,2.83
2023-02-04T01:41:30.201Z,3.00
2023-02-04T01:44:00.227Z,2.80
2023-02-04T01:46:30.336Z,3.20
2023-02-04T01:48:58.520Z,3.57
2023-02-04T01:51:30.416Z,2.97
2023-02-04T01:54:02.466Z,3.30
2023-02-04T01:56:32.620Z,2.67
2023-02-04T01:59:03.013Z,2.10
2023-02-04T02:01:45.258Z,3.03
2023-02-04T02:04:33.192Z,2.33
2023-02-04T02:07:05.187Z,2.70
2023-02-04T02:09:35.575Z,2.10
2023-02-04T02:12:04.396Z,2.77
2023-02-04T02:14:36.569Z,2.50
2023-02-04T02:17:07.066Z,2.60
2023-02-04T02:19:41.273Z,2.90
2023-02-04T02:22:20.551Z,2.70
2023-02-04T02:24:48.505Z,2.50
2023-02-04T02:27:17.565Z,2.67
2023-02-04T02:29:44.960Z,2.57
2023-02-04T02:32:15.820Z,2.90
2023-02-04T02:34:44.956Z,2.63
2023-02-04T02:37:12.967Z,3.80
2023-02-04T02:39:47.055Z,3.10
2023-02-04T02:42:21.013Z,3.20
2023-02-04T02:45:06.986Z,2.70
2023-02-04T02:47:37.138Z,2.87
2023-02-04T02:50:04.756Z,3.17
2023-02-04T02:52:37.853Z,3.00
2023-02-04T02:55:06.218Z,3.13
2023-02-04T02:57:33.104Z,3.30
2023-02-04T03:00:00.974Z,3.27
2023-02-04T03:02:28.001Z,3.63
2023-02-04T03:04:58.231Z,3.30
2023-02-04T03:07:28.193Z,2.73
2023-02-04T03:09:55.329Z,3.67
2023-02-04T03:12:23.371Z,3.00
2023-02-04T03:14:50.376Z,3.47
2023-02-04T03:17:19.510Z,3.40
2023-02-04T03:19:46.507Z,3.03
2023-02-04T03:22:16.010Z,2.80
2023-02-04T03:24:46.151Z,3.33
2023-02-04T03:27:16.421Z,2.97
2023-02-04T03:29:46.799Z,3.13
2023-02-04T03:32:15.868Z,3.03
2023-02-04T03:34:45.923Z,3.50
2023-02-04T03:37:14.966Z,2.80
2023-02-04T03:39:44.600Z,2.53
2023-02-04T03:42:11.579Z,3.13
2023-02-04T03:44:38.524Z,3.13
2023-02-04T03:47:14.603Z,3.40
2023-02-04T03:49:42.610Z,3.00
2023-02-04T03:52:14.571Z,3.33
2023-02-04T03:54:47.089Z,3.30
2023-02-04T03:57:15.986Z,3.20
2023-02-04T03:59:47.344Z,4.07
2023-02-04T04:02:14.363Z,4.53
2023-02-04T04:04:42.448Z,3.63
2023-02-04T04:07:18.486Z,3.20
2023-02-04T04:09:48.476Z,3.20
2023-02-04T04:12:17.410Z,2.97
2023-02-04T04:14:47.419Z,3.27
2023-02-04T04:17:15.375Z,4.50
2023-02-04T04:19:44.380Z,3.57
2023-02-04T04:22:14.389Z,4.60
2023-02-04T04:24:46.899Z,3.80
2023-02-04T04:27:17.020Z,3.47
2023-02-04T04:29:44.921Z,3.20
2023-02-04T04:32:12.900Z,3.47
2023-02-04T04:34:44.257Z,3.43
2023-02-04T04:37:12.228Z,4.23
2023-02-04T04:39:40.322Z,3.73
2023-02-04T04:42:10.332Z,3.40
2023-02-04T04:44:45.767Z,3.53
2023-02-04T04:47:12.779Z,3.50
2023-02-04T04:49:40.794Z,3.33
2023-02-04T04:52:10.856Z,4.07
2023-02-04T04:54:40.761Z,3.50
2023-02-04T04:57:07.618Z,4.00
2023-02-04T04:59:37.060Z,2.87
2023-02-04T05:02:04.054Z,3.17
2023-02-04T05:04:30.976Z,3.37
2023-02-04T05:07:00.001Z,4.10
2023-02-04T05:09:28.016Z,3.40
2023-02-04T05:11:55.945Z,3.17
2023-02-04T05:14:26.038Z,3.10
2023-02-04T05:16:52.971Z,3.43
2023-02-04T05:19:25.718Z,2.87
2023-02-04T05:21:52.718Z,3.20
2023-02-04T05:24:24.188Z,3.47
2023-02-04T05:26:51.138Z,3.43
2023-02-04T05:29:19.185Z,3.50
2023-02-04T05:31:49.189Z,3.37
2023-02-04T05:34:17.134Z,3.03
2023-02-04T05:36:50.219Z,2.80
2023-02-04T05:39:20.194Z,2.90
2023-02-04T05:41:48.461Z,3.50
2023-02-04T05:44:15.595Z,3.17
2023-02-04T05:46:44.561Z,3.23
2023-02-04T05:49:14.086Z,2.93
2023-02-04T05:51:42.152Z,3.93
2023-02-04T05:54:19.526Z,3.27
2023-02-04T05:56:59.156Z,3.33
2023-02-04T05:59:26.121Z,3.50
2023-02-04T06:01:59.009Z,3.90
2023-02-04T06:04:29.085Z,3.27
2023-02-04T06:06:59.093Z,3.63
2023-02-04T06:09:29.179Z,3.70
2023-02-04T06:11:58.162Z,4.90
2023-02-04T06:14:28.155Z,3.47
2023-02-04T06:16:57.254Z,4.27
2023-02-04T06:19:24.389Z,3.53
2023-02-04T06:21:52.354Z,3.23
2023-02-04T06:24:20.303Z,3.10
2023-02-04T06:26:48.330Z,3.67
2023-02-04T06:29:18.793Z,3.43
2023-02-04T06:31:55.935Z,3.47
2023-02-04T06:34:25.969Z,2.90
2023-02-04T06:36:58.967Z,3.27
2023-02-04T06:39:31.482Z,2.90
2023-02-04T06:42:00.093Z,3.00
2023-02-04T06:44:33.840Z,2.80
2023-02-04T06:47:02.844Z,3.60
2023-02-04T06:49:32.880Z,3.13
2023-02-04T06:52:02.972Z,3.77
2023-02-04T06:54:31.672Z,3.40
2023-02-04T06:57:06.855Z,3.90
2023-02-04T06:59:38.336Z,4.10
2023-02-04T07:02:08.107Z,3.83
2023-02-04T07:04:37.122Z,3.50
2023-02-04T07:07:07.139Z,4.00
2023-02-04T07:09:36.126Z,4.03
2023-02-04T07:12:05.396Z,3.67
2023-02-04T07:14:35.500Z,4.00
2023-02-04T07:17:05.650Z,4.33
2023-02-04T07:19:33.609Z,4.10
2023-02-04T07:22:03.908Z,4.03
2023-02-04T07:24:31.185Z,4.50
2023-02-04T07:27:02.548Z,4.07
2023-02-04T07:29:32.233Z,4.13
2023-02-04T07:31:59.371Z,3.97
2023-02-04T07:34:26.473Z,3.63
2023-02-04T07:36:55.552Z,4.13
2023-02-04T07:39:25.735Z,3.87
2023-02-04T07:41:55.753Z,4.27
2023-02-04T07:44:23.744Z,3.87
2023-02-04T07:46:52.829Z,3.67
2023-02-04T07:49:20.782Z,4.40
2023-02-04T07:51:50.798Z,4.47
2023-02-04T07:54:17.730Z,4.30
2023-02-04T07:56:47.782Z,3.80
2023-02-04T07:59:15.738Z,3.93
2023-02-04T08:01:43.888Z,4.30
2023-02-04T08:04:14.056Z,3.33
2023-02-04T08:06:42.019Z,3.60
2023-02-04T08:09:12.061Z,3.47
2023-02-04T08:11:42.610Z,3.40
2023-02-04T08:14:10.524Z,3.33
2023-02-04T08:16:39.528Z,3.03
2023-02-04T08:19:07.417Z,2.83
2023-02-04T08:21:34.336Z,2.40
2023-02-04T08:24:08.747Z,2.83
2023-02-04T08:26:37.375Z,2.80
2023-02-04T08:29:05.300Z,2.50
2023-02-04T08:31:32.321Z,2.33
2023-02-04T08:34:00.661Z,2.93
2023-02-04T08:36:30.819Z,2.47
2023-02-04T08:39:03.445Z,2.13
2023-02-04T08:41:30.523Z,2.50
2023-02-04T08:43:59.762Z,2.17
2023-02-04T08:46:28.044Z,2.43
2023-02-04T08:48:55.187Z,2.40
2023-02-04T08:51:23.217Z,3.83
2023-02-04T08:53:56.184Z,4.07
2023-02-04T08:56:24.586Z,6.37
2023-02-04T08:58:54.680Z,7.50
2023-02-04T09:01:22.674Z,10.50
2023-02-04T09:03:50.076Z,9.00
2023-02-04T09:06:20.110Z,5.87
2023-02-04T09:08:50.463Z,6.30
2023-02-04T09:11:19.456Z,5.37
2023-02-04T09:13:47.425Z,4.50
2023-02-04T09:16:15.711Z,4.93
2023-02-04T09:18:45.420Z,4.63
2023-02-04T09:21:12.400Z,5.27
2023-02-04T09:23:40.401Z,5.43
2023-02-04T09:26:12.985Z,3.90
2023-02-04T09:28:40.999Z,2.83
2023-02-04T09:31:10.911Z,3.13
2023-02-04T09:33:39.697Z,3.27
2023-02-04T09:36:10.047Z,3.40
2023-02-04T09:38:40.152Z,2.47
2023-02-04T09:41:10.477Z,2.53
2023-02-04T09:43:42.112Z,2.40
2023-02-04T09:46:30.256Z,3.43
2023-02-04T09:48:59.514Z,3.27
2023-02-04T09:51:31.861Z,2.93
2023-02-04T09:54:09.932Z,3.70
2023-02-04T09:56:45.866Z,2.87
2023-02-04T09:59:18.311Z,3.00
2023-02-04T10:02:01.262Z,2.90
2023-02-04T10:04:31.408Z,2.77
2023-02-04T10:07:01.099Z,2.30
2023-02-04T10:09:30.139Z,1.90
2023-02-04T10:11:57.187Z,2.13
2023-02-04T10:14:25.227Z,2.47
2023-02-04T10:16:57.915Z,3.73
2023-02-04T10:19:30.645Z,3.23
2023-02-04T10:22:02.354Z,3.13
2023-02-04T10:24:41.957Z,3.83
2023-02-04T10:27:18.334Z,2.90
2023-02-04T10:29:56.940Z,2.70
2023-02-04T10:32:34.649Z,2.57
2023-02-04T10:35:04.966Z,2.67
2023-02-04T10:37:37.334Z,2.40
2023-02-04T10:40:04.666Z,2.57
2023-02-04T10:42:32.644Z,2.73
2023-02-04T10:45:05.549Z,2.97
2023-02-04T10:47:32.593Z,3.07
2023-02-04T10:50:03.030Z,2.73
2023-02-04T10:52:40.345Z,2.53
2023-02-04T10:55:17.589Z,2.83
2023-02-04T10:57:46.792Z,2.00
2023-02-04T11:00:25.604Z,2.33
2023-02-04T11:03:00.500Z,2.60
2023-02-04T11:05:34.495Z,2.57
2023-02-04T11:08:28.529Z,2.20
2023-02-04T11:11:06.996Z,2.20
2023-02-04T11:13:59.719Z,2.07
2023-02-04T11:16:38.608Z,2.70
2023-02-04T11:19:14.030Z,2.53
2023-02-04T11:21:43.469Z,2.73
2023-02-04T11:24:14.374Z,2.57
2023-02-04T11:26:49.556Z,2.23
2023-02-04T11:29:38.241Z,2.63
2023-02-04T11:32:31.585Z,2.70
2023-02-04T11:35:14.033Z,2.57
2023-02-04T11:37:43.640Z,2.73
2023-02-04T11:40:33.022Z,2.87
2023-02-04T11:43:22.216Z,2.50
2023-02-04T11:45:49.152Z,2.47
2023-02-04T11:48:19.743Z,2.40
2023-02-04T11:51:02.060Z,2.67
2023-02-04T11:53:41.273Z,3.03
2023-02-04T11:56:18.410Z,3.53
2023-02-04T11:58:45.916Z,2.80
2023-02-04T12:01:25.620Z,3.00
2023-02-04T12:04:05.923Z,2.73
2023-02-04T12:06:37.021Z,2.53
2023-02-04T12:09:32.300Z,2.80
2023-02-04T12:12:03.259Z,3.17
2023-02-04T12:14:37.354Z,3.77
2023-02-04T12:17:17.696Z,3.77
2023-02-04T12:19:47.618Z,3.17
2023-02-04T12:22:17.366Z,3.30
2023-02-04T12:24:48.788Z,3.00
2023-02-04T12:27:21.820Z,3.97
2023-02-04T12:29:50.982Z,3.30
2023-02-04T12:32:18.929Z,2.60
2023-02-04T12:34:47.937Z,2.30
2023-02-04T12:37:16.932Z,2.77
2023-02-04T12:39:45.867Z,2.60
2023-02-04T12:42:13.809Z,2.67
2023-02-04T12:44:43.238Z,2.60
2023-02-04T12:47:10.219Z,2.30
2023-02-04T12:49:42.140Z,2.40
2023-02-04T12:52:12.421Z,2.57
2023-02-04T12:54:40.420Z,2.70
2023-02-04T12:57:08.374Z,2.63
2023-02-04T12:59:41.006Z,2.17
2023-02-04T13:02:11.143Z,2.10
2023-02-04T13:04:41.696Z,2.37
2023-02-04T13:07:10.481Z,2.50
2023-02-04T13:09:38.223Z,2.30
2023-02-04T13:12:05.319Z,2.50
2023-02-04T13:14:33.677Z,2.40
2023-02-04T13:17:03.498Z,2.47
2023-02-04T13:19:35.610Z,2.50
2023-02-04T13:22:05.627Z,2.73
2023-02-04T13:24:38.204Z,2.27
2023-02-04T13:27:05.172Z,2.53
2023-02-04T13:29:35.263Z,4.80
2023-02-04T13:32:02.876Z,2.73
2023-02-04T13:34:30.814Z,3.23
2023-02-04T13:36:58.834Z,2.33
2023-02-04T13:39:28.926Z,3.10
2023-02-04T13:41:55.888Z,2.60
2023-02-04T13:44:23.996Z,2.37
2023-02-04T13:46:52.034Z,2.67
2023-02-04T13:49:21.704Z,2.50
2023-02-04T13:51:48.682Z,2.20
2023-02-04T13:54:16.829Z,2.20
2023-02-04T13:56:46.889Z,2.37
2023-02-04T13:59:21.995Z,2.30
2023-02-04T14:01:52.038Z,2.93
2023-02-04T14:04:24.483Z,2.63
2023-02-04T14:06:55.561Z,2.60
2023-02-04T14:09:23.178Z,2.37
2023-02-04T14:11:52.266Z,2.30
2023-02-04T14:14:22.414Z,2.70
2023-02-04T14:16:52.522Z,2.60
2023-02-04T14:19:25.522Z,2.97
2023-02-04T14:21:54.745Z,3.20
2023-02-04T14:24:27.922Z,3.30
2023-02-04T14:26:58.421Z,3.10
2023-02-04T14:29:48.290Z,3.10
2023-02-04T14:32:19.120Z,3.10
2023-02-04T14:34:48.137Z,3.80
2023-02-04T14:37:19.574Z,2.90
2023-02-04T14:39:49.564Z,2.73
2023-02-04T14:42:19.557Z,2.70
2023-02-04T14:44:51.146Z,3.60
2023-02-04T14:47:22.647Z,3.37
2023-02-04T14:49:50.594Z,2.90
2023-02-04T14:52:20.686Z,3.00
2023-02-04T14:54:47.583Z,2.73
2023-02-04T14:57:15.551Z,2.60
2023-02-04T14:59:51.994Z,2.50
2023-02-04T15:02:25.320Z,2.33
2023-02-04T15:04:52.473Z,2.33
2023-02-04T15:07:24.526Z,2.93
2023-02-04T15:09:51.822Z,3.10
2023-02-04T15:12:20.881Z,3.30
2023-02-04T15:14:47.731Z,2.20
2023-02-04T15:17:14.748Z,3.40
2023-02-04T15:19:44.126Z,3.47
2023-02-04T15:22:18.473Z,3.13
2023-02-04T15:24:48.308Z,3.37
2023-02-04T15:27:20.323Z,3.60
2023-02-04T15:29:50.360Z,3.33
2023-02-04T15:32:17.393Z,2.50
2023-02-04T15:34:44.325Z,3.30
2023-02-04T15:37:11.377Z,3.17
2023-02-04T15:39:40.286Z,2.70
2023-02-04T15:42:07.176Z,3.53
2023-02-04T15:44:34.404Z,4.83
2023-02-04T15:47:02.594Z,5.17
2023-02-04T15:49:30.675Z,4.70
2023-02-04T15:51:57.974Z,4.63
2023-02-04T15:54:24.912Z,4.97
2023-02-04T15:56:51.857Z,4.57
2023-02-04T15:59:22.406Z,9.40
2023-02-04T16:01:50.812Z,9.80
2023-02-04T16:04:21.007Z,6.97
2023-02-04T16:06:58.148Z,5.10
2023-02-04T16:09:26.613Z,4.40
2023-02-04T16:11:56.595Z,4.57
2023-02-04T16:14:25.533Z,4.53
2023-02-04T16:16:52.550Z,4.17
2023-02-04T16:19:22.562Z,3.73
2023-02-04T16:21:49.823Z,4.53
2023-02-04T16:24:18.608Z,4.50
2023-02-04T16:26:49.123Z,4.60
2023-02-04T16:29:30.136Z,4.87
2023-02-04T16:32:00.174Z,4.10
2023-02-04T16:34:30.223Z,4.73
2023-02-04T16:36:58.207Z,5.10
2023-02-04T16:39:28.144Z,5.43
2023-02-04T16:41:56.168Z,5.43
2023-02-04T16:44:23.068Z,4.87
2023-02-04T16:46:50.918Z,5.10
2023-02-04T16:49:20.976Z,4.83
2023-02-04T16:51:51.029Z,5.30
2023-02-04T16:54:22.914Z,4.70
2023-02-04T16:56:55.365Z,4.27
2023-02-04T16:59:25.900Z,4.93
2023-02-04T17:01:53.195Z,4.33
2023-02-04T17:04:22.773Z,4.17
2023-02-04T17:06:51.981Z,4.77
2023-02-04T17:09:23.172Z,3.90
2023-02-04T17:11:52.266Z,4.17
2023-02-04T17:14:22.470Z,4.07
2023-02-04T17:16:51.882Z,4.13
2023-02-04T17:19:21.063Z,4.13
2023-02-04T17:21:51.234Z,4.17
2023-02-04T17:24:20.974Z,4.63
2023-02-04T17:26:51.089Z,4.60
2023-02-04T17:29:22.323Z,4.40
2023-02-04T17:31:54.314Z,4.60
2023-02-04T17:34:21.269Z,4.33
2023-02-04T17:36:51.365Z,5.30
2023-02-04T17:39:20.279Z,5.15
2023-02-04T17:41:50.401Z,6.03
2023-02-04T17:44:24.844Z,4.80
2023-02-04T17:46:53.878Z,5.53
2023-02-04T17:49:24.018Z,5.37
2023-02-04T17:51:51.159Z,5.97
2023-02-04T17:54:18.262Z,5.33
2023-02-04T17:56:47.327Z,5.20
2023-02-04T17:59:17.291Z,6.07
2023-02-04T18:01:49.832Z,6.20
2023-02-04T18:04:20.694Z,6.60
2023-02-04T18:06:51.517Z,5.40
2023-02-04T18:09:19.543Z,6.07
2023-02-04T18:11:47.556Z,6.17
2023-02-04T18:14:24.914Z,6.43
2023-02-04T18:16:57.593Z,6.33
2023-02-04T18:19:31.258Z,5.93
2023-02-04T18:21:59.409Z,7.40
2023-02-04T18:24:36.015Z,7.13
2023-02-04T18:27:18.071Z,6.50
2023-02-04T18:29:55.661Z,7.03
2023-02-04T18:32:41.325Z,6.90
2023-02-04T18:35:52.170Z,6.83
2023-02-04T18:38:32.658Z,7.77
2023-02-04T18:41:20.002Z,7.60
2023-02-04T18:44:02.231Z,8.50
2023-02-04T18:46:34.985Z,8.50
2023-02-04T18:49:25.250Z,7.70
2023-02-04T18:51:54.158Z,8.77
2023-02-04T18:54:23.685Z,8.40
2023-02-04T18:56:50.636Z,8.47
2023-02-04T18:59:19.641Z,9.23
2023-02-04T19:01:51.417Z,8.10
2023-02-04T19:04:22.650Z,8.33
2023-02-04T19:06:52.396Z,8.90
2023-02-04T19:09:32.545Z,8.30
2023-02-04T19:12:13.543Z,8.17
2023-02-04T19:14:48.248Z,8.47
2023-02-04T19:17:28.475Z,8.97
2023-02-04T19:20:08.329Z,7.97
2023-02-04T19:22:46.182Z,8.17
2023-02-04T19:25:22.220Z,8.27
2023-02-04T19:27:57.922Z,8.90
2023-02-04T19:30:29.248Z,8.40
2023-02-04T19:32:59.890Z,8.10
2023-02-04T19:35:29.727Z,7.57
2023-02-04T19:38:02.660Z,8.33
2023-02-04T19:40:36.199Z,9.40
2023-02-04T19:43:24.848Z,8.03
2023-02-04T19:45:52.138Z,9.13
2023-02-04T19:48:27.365Z,7.60
2023-02-04T19:50:54.888Z,7.43
2023-02-04T19:53:26.853Z,7.07
2023-02-04T19:55:54.798Z,7.87
2023-02-04T19:58:26.529Z,7.83
2023-02-04T20:01:03.633Z,7.80
2023-02-04T20:03:36.983Z,7.30
2023-02-04T20:06:23.809Z,7.30
2023-02-04T20:09:16.608Z,6.33
2023-02-04T20:12:00.598Z,7.03
2023-02-04T20:14:43.423Z,6.13
2023-02-04T20:17:48.558Z,6.07
2023-02-04T20:20:17.572Z,5.67
2023-02-04T20:22:49.105Z,5.27
2023-02-04T20:25:40.404Z,5.80
2023-02-04T20:28:44.867Z,5.53
2023-02-04T20:31:24.719Z,5.83
2023-02-04T20:33:56.909Z,4.93
2023-02-04T20:36:27.022Z,4.10
2023-02-04T20:39:02.175Z,4.50
2023-02-04T20:41:36.299Z,4.13
2023-02-04T20:44:16.598Z,4.50
2023-02-04T20:46:43.931Z,4.30
2023-02-04T20:49:27.461Z,4.47
2023-02-04T20:52:00.414Z,4.07
2023-02-04T20:54:32.762Z,3.50
2023-02-04T20:57:16.676Z,3.30
2023-02-04T20:59:48.181Z,3.03
2023-02-04T21:02:23.876Z,3.00
2023-02-04T21:04:54.221Z,3.00
2023-02-04T21:07:23.033Z,2.17
2023-02-04T21:09:53.176Z,2.13
2023-02-04T21:12:24.860Z,2.03
2023-02-04T21:17:33.392Z,1.80
2023-02-04T21:20:02.491Z,1.90
2023-02-04T21:22:32.574Z,2.80
2023-02-04T21:25:01.564Z,2.40
2023-02-04T21:27:29.530Z,2.20
2023-02-04T21:30:00.559Z,2.27
2023-02-04T21:32:29.478Z,3.17
2023-02-04T21:34:57.375Z,2.97
2023-02-04T21:37:26.295Z,2.30
2023-02-04T21:39:53.338Z,2.17
2023-02-04T21:42:23.822Z,1.80
2023-02-04T21:44:58.229Z,1.50
2023-02-04T21:47:28.134Z,2.10
2023-02-04T21:49:55.071Z,1.43
2023-02-04T21:52:23.092Z,1.40
2023-02-04T21:54:53.152Z,1.17
2023-02-04T21:57:21.182Z,1.10
2023-02-04T21:59:49.203Z,1.07
2023-02-04T22:02:19.235Z,1.43
2023-02-04T22:04:49.386Z,1.20
2023-02-04T22:07:26.369Z,1.47
2023-02-04T22:09:53.403Z,1.23
2023-02-04T22:12:22.356Z,1.27
2023-02-04T22:14:50.315Z,1.33
2023-02-04T22:17:19.348Z,1.27
2023-02-04T22:19:46.249Z,1.40
2023-02-04T22:22:13.205Z,1.40
2023-02-04T22:24:41.099Z,1.73
2023-02-04T22:27:07.999Z,2.20
2023-02-04T22:29:38.345Z,2.40
2023-02-04T22:32:06.383Z,2.70
2023-02-04T22:34:34.499Z,2.20
2023-02-04T22:37:02.522Z,2.37
2023-02-04T22:39:32.671Z,2.10
2023-02-04T22:42:00.674Z,1.93
2023-02-04T22:44:33.578Z,1.73
2023-02-04T22:47:00.588Z,1.37
2023-02-04T22:49:37.075Z,1.37
2023-02-04T22:52:07.236Z,1.10
2023-02-04T22:54:37.844Z,1.70
2023-02-04T22:57:14.097Z,1.17
2023-02-04T22:59:43.090Z,0.73
2023-02-04T23:02:15.219Z,1.00
2023-02-04T23:04:44.139Z,1.10
2023-02-04T23:07:14.978Z,0.80
2023-02-04T23:09:41.929Z,1.13
2023-02-04T23:12:17.597Z,0.80
2023-02-04T23:14:48.256Z,1.50
2023-02-04T23:17:19.217Z,1.00
2023-02-04T23:19:47.228Z,0.83
2023-02-04T23:22:17.635Z,1.20
2023-02-04T23:24:49.609Z,1.03
2023-02-04T23:27:17.641Z,1.00
2023-02-04T23:29:44.719Z,1.37
2023-02-04T23:32:15.607Z,0.90
2023-02-04T23:34:42.561Z,1.33
2023-02-04T23:37:12.633Z,1.10
2023-02-04T23:39:39.549Z,1.03
2023-02-04T23:42:08.587Z,1.00
2023-02-04T23:44:38.044Z,1.60
2023-02-04T23:47:10.365Z,1.37
2023-02-04T23:49:37.453Z,1.20
2023-02-04T23:52:05.715Z,1.27
2023-02-04T23:54:35.643Z,1.20
2023-02-04T23:57:05.678Z,1.07
2023-02-04T23:59:36.337Z,1.20
